Time;durP1;ratioP1;P1;durP2;ratioP2;P2;SDS_P1;SDS_P2;PMS_P1;PMS_P2;Temp;Humidity;BMP_temperature;BMP_pressure;BME280_temperature;BME280_humidity;BME280_pressure;Samples;Min_cycle;Max_cycle;Signal;HPM_P1;HPM_P2
2022/05/21 00:00:20;;;;;;;6.37;4.23;;;;;;;;;;5033238;28;20172;-86
2022/05/21 00:03:24;;;;;;;8.60;4.53;;;;;;;;;;5021637;28;20208;-86
2022/05/21 00:06:28;;;;;;;9.70;4.70;;;;;;;;;;5044736;28;20199;-86
2022/05/21 00:09:32;;;;;;;9.23;4.90;;;;;;;;;;5032902;28;20529;-86
2022/05/21 00:12:36;;;;;;;6.07;4.70;;;;;;;;;;5021953;28;20180;-85
2022/05/21 00:15:41;;;;;;;8.53;5.03;;;;;;;;;;5033188;28;20168;-86
2022/05/21 00:18:46;;;;;;;14.17;4.83;;;;;;;;;;5021688;28;20512;-86
2022/05/21 00:21:50;;;;;;;8.33;5.10;;;;;;;;;;5044272;28;20184;-86
2022/05/21 00:24:55;;;;;;;8.20;5.20;;;;;;;;;;5032794;28;20181;-86
2022/05/21 00:27:59;;;;;;;9.73;5.03;;;;;;;;;;5032928;28;20180;-85
2022/05/21 00:31:06;;;;;;;7.43;4.63;;;;;;;;;;5032912;28;20184;-86
2022/05/21 00:34:09;;;;;;;9.67;5.33;;;;;;;;;;5020701;28;20228;-86
2022/05/21 00:37:14;;;;;;;12.03;5.53;;;;;;;;;;5032734;28;20508;-86
2022/05/21 00:40:18;;;;;;;20.10;6.33;;;;;;;;;;5021264;28;20180;-86
2022/05/21 00:43:40;;;;;;;7.50;5.57;;;;;;;;;;5020926;28;20220;-85
2022/05/21 00:46:45;;;;;;;13.07;5.27;;;;;;;;;;5021090;28;20208;-86
2022/05/21 00:49:50;;;;;;;10.20;6.30;;;;;;;;;;5032337;28;20176;-86
2022/05/21 00:52:55;;;;;;;13.37;5.87;;;;;;;;;;5020679;28;20216;-86
2022/05/21 00:55:59;;;;;;;15.03;6.40;;;;;;;;;;5020793;28;20176;-86
2022/05/21 01:02:36;;;;;;;11.60;5.90;;;;;;;;;;5031866;28;20184;-86
2022/05/21 01:05:44;;;;;;;13.23;6.33;;;;;;;;;;5031674;28;20204;-86
2022/05/21 01:08:48;;;;;;;11.83;6.20;;;;;;;;;;5020479;28;20180;-86
2022/05/21 01:11:53;;;;;;;8.27;5.93;;;;;;;;;;5020785;28;20184;-86
2022/05/21 01:15:01;;;;;;;10.43;5.77;;;;;;;;;;5031889;28;20172;-86
2022/05/21 01:18:07;;;;;;;9.17;6.47;;;;;;;;;;5031799;28;20172;-86
2022/05/21 01:21:11;;;;;;;13.63;6.40;;;;;;;;;;5032191;28;20501;-86
2022/05/21 01:24:16;;;;;;;12.63;6.97;;;;;;;;;;5020182;28;20216;-86
2022/05/21 01:27:20;;;;;;;9.67;6.97;;;;;;;;;;5055087;28;20212;-86
2022/05/21 01:30:33;;;;;;;13.77;6.57;;;;;;;;;;5031955;28;20180;-86
2022/05/21 01:33:41;;;;;;;14.67;7.10;;;;;;;;;;5031121;28;20227;-86
2022/05/21 01:36:46;;;;;;;13.20;7.03;;;;;;;;;;5031190;28;20177;-86
2022/05/21 01:39:50;;;;;;;10.33;6.67;;;;;;;;;;5020465;28;20176;-86
2022/05/21 01:46:17;;;;;;;10.83;7.23;;;;;;;;;;5042381;28;20208;-86
2022/05/21 01:49:22;;;;;;;14.93;6.60;;;;;;;;;;5019869;28;20184;-86
2022/05/21 01:52:27;;;;;;;12.33;6.83;;;;;;;;;;5019771;28;20184;-86
2022/05/21 01:55:31;;;;;;;10.87;7.20;;;;;;;;;;5031100;28;20187;-85
2022/05/21 01:58:36;;;;;;;11.63;7.43;;;;;;;;;;5030746;28;20191;-85
2022/05/21 02:01:40;;;;;;;10.20;7.00;;;;;;;;;;5019698;28;20627;-86
2022/05/21 02:04:44;;;;;;;7.40;6.33;;;;;;;;;;5042325;28;20219;-86
2022/05/21 02:07:48;;;;;;;10.77;6.83;;;;;;;;;;5030411;28;20212;-86
2022/05/21 02:10:52;;;;;;;8.53;6.40;;;;;;;;;;5019583;28;20176;-86
2022/05/21 02:13:57;;;;;;;11.00;7.13;;;;;;;;;;5019566;28;20211;-86
2022/05/21 02:17:01;;;;;;;10.43;6.97;;;;;;;;;;5041378;28;20180;-86
2022/05/21 02:20:06;;;;;;;11.53;6.50;;;;;;;;;;5019375;28;20176;-86
2022/05/21 02:23:11;;;;;;;8.37;6.73;;;;;;;;;;5030486;28;20212;-86
2022/05/21 02:26:17;;;;;;;12.43;7.27;;;;;;;;;;5019407;28;20208;-86
2022/05/21 02:29:21;;;;;;;9.53;6.17;;;;;;;;;;5019188;28;20193;-86
2022/05/21 02:32:25;;;;;;;12.90;6.60;;;;;;;;;;5030061;28;20196;-86
2022/05/21 02:35:29;;;;;;;11.13;6.20;;;;;;;;;;5018547;28;20539;-86
2022/05/21 02:42:00;;;;;;;8.90;6.03;;;;;;;;;;5030503;28;20247;-85
2022/05/21 02:45:06;;;;;;;11.90;6.57;;;;;;;;;;5030267;28;20180;-86
2022/05/21 02:48:10;;;;;;;9.03;6.13;;;;;;;;;;5019283;28;20176;-86
2022/05/21 02:51:14;;;;;;;13.43;6.40;;;;;;;;;;5019283;28;20508;-86
2022/05/21 02:54:19;;;;;;;8.33;6.03;;;;;;;;;;5041127;28;20212;-85
2022/05/21 02:57:24;;;;;;;7.70;6.07;;;;;;;;;;5030056;28;20188;-86
2022/05/21 03:00:30;;;;;;;7.37;5.60;;;;;;;;;;5030036;28;20180;-86
2022/05/21 03:03:35;;;;;;;8.10;5.93;;;;;;;;;;5018496;28;20216;-86
2022/05/21 03:06:39;;;;;;;12.87;5.33;;;;;;;;;;5029851;28;20219;-86
2022/05/21 03:13:06;;;;;;;10.80;5.87;;;;;;;;;;5029729;28;20212;-85
2022/05/21 03:16:11;;;;;;;8.33;5.50;;;;;;;;;;5018473;28;20200;-86
2022/05/21 03:19:15;;;;;;;7.07;4.67;;;;;;;;;;5029744;28;20180;-86
2022/05/21 03:22:19;;;;;;;4.90;4.13;;;;;;;;;;5018491;28;20176;-86
2022/05/21 03:25:23;;;;;;;7.80;4.70;;;;;;;;;;5041099;28;20524;-86
2022/05/21 03:28:27;;;;;;;10.33;4.70;;;;;;;;;;5042329;28;20176;-86
2022/05/21 03:31:31;;;;;;;6.90;4.60;;;;;;;;;;5033998;28;20188;-86
2022/05/21 03:34:36;;;;;;;8.13;4.20;;;;;;;;;;5044611;28;20717;-86
2022/05/21 03:37:40;;;;;;;9.40;4.17;;;;;;;;;;5022704;28;20548;-86
2022/05/21 03:40:44;;;;;;;5.07;3.67;;;;;;;;;;5022764;28;20176;-86
2022/05/21 03:43:50;;;;;;;9.77;4.20;;;;;;;;;;5033321;28;20208;-85
2022/05/21 03:46:54;;;;;;;6.03;4.47;;;;;;;;;;5022309;28;20177;-86
2022/05/21 03:49:58;;;;;;;6.73;4.00;;;;;;;;;;5033386;28;20188;-86
2022/05/21 03:53:02;;;;;;;8.93;4.23;;;;;;;;;;5021748;28;20207;-86
2022/05/21 03:56:07;;;;;;;6.10;4.07;;;;;;;;;;5022051;28;20184;-86
2022/05/21 03:59:11;;;;;;;7.23;4.00;;;;;;;;;;5033391;28;20524;-86
2022/05/21 04:02:15;;;;;;;5.73;4.10;;;;;;;;;;5022113;28;20631;-86
2022/05/21 04:05:20;;;;;;;6.70;3.93;;;;;;;;;;5021754;28;20176;-85
2022/05/21 04:08:24;;;;;;;6.60;4.10;;;;;;;;;;5021586;28;20172;-86
2022/05/21 04:11:29;;;;;;;4.57;4.07;;;;;;;;;;5032613;28;20262;-86
2022/05/21 04:14:33;;;;;;;4.53;3.70;;;;;;;;;;5032893;28;20215;-86
2022/05/21 04:17:37;;;;;;;6.93;4.07;;;;;;;;;;5021708;28;20204;-86
2022/05/21 04:20:42;;;;;;;4.37;3.97;;;;;;;;;;5021585;28;20180;-86
2022/05/21 04:23:46;;;;;;;7.17;3.90;;;;;;;;;;5032562;28;20215;-85
2022/05/21 04:26:50;;;;;;;4.43;3.73;;;;;;;;;;5033167;28;20192;-85
2022/05/21 04:29:54;;;;;;;5.97;3.70;;;;;;;;;;5032912;28;20176;-86
2022/05/21 04:32:58;;;;;;;4.10;3.57;;;;;;;;;;5021583;28;20223;-86
2022/05/21 04:36:18;;;;;;;4.27;3.67;;;;;;;;;;5043987;28;20180;-86
2022/05/21 04:39:22;;;;;;;5.33;3.60;;;;;;;;;;5021148;28;20188;-86
2022/05/21 04:42:26;;;;;;;5.13;3.57;;;;;;;;;;5043782;28;20184;-85
2022/05/21 04:45:30;;;;;;;7.73;3.70;;;;;;;;;;5032643;28;20176;-86
2022/05/21 04:48:34;;;;;;;6.07;3.50;;;;;;;;;;5032476;28;20180;-86
2022/05/21 04:51:38;;;;;;;5.70;3.50;;;;;;;;;;5032658;28;20520;-86
2022/05/21 04:54:43;;;;;;;4.67;3.10;;;;;;;;;;5020777;28;20220;-86
2022/05/21 04:57:47;;;;;;;5.40;3.47;;;;;;;;;;5020845;28;20208;-86
2022/05/21 05:00:51;;;;;;;3.73;2.90;;;;;;;;;;5032210;28;20180;-86
2022/05/21 05:03:56;;;;;;;3.53;3.23;;;;;;;;;;5020950;28;20219;-86
2022/05/21 05:07:06;;;;;;;3.63;3.23;;;;;;;;;;5032018;28;20180;-86
2022/05/21 05:10:11;;;;;;;4.93;2.90;;;;;;;;;;5021021;28;20184;-86
2022/05/21 05:13:16;;;;;;;4.43;2.93;;;;;;;;;;5020955;28;20216;-85
2022/05/21 05:16:20;;;;;;;5.40;3.10;;;;;;;;;;5032621;28;20176;-86
2022/05/21 05:19:24;;;;;;;4.93;2.90;;;;;;;;;;5032296;28;20180;-86
2022/05/21 05:22:28;;;;;;;7.83;3.10;;;;;;;;;;5020549;28;20177;-85
2022/05/21 05:25:33;;;;;;;3.27;2.97;;;;;;;;;;5032199;28;20180;-86
2022/05/21 05:28:37;;;;;;;5.43;3.00;;;;;;;;;;5021243;28;20623;-86
2022/05/21 05:31:41;;;;;;;7.20;3.30;;;;;;;;;;5020649;28;20532;-86
2022/05/21 05:34:45;;;;;;;6.33;3.20;;;;;;;;;;5031352;28;20563;-86
2022/05/21 05:37:49;;;;;;;3.60;2.80;;;;;;;;;;5031753;28;20670;-86
2022/05/21 05:40:55;;;;;;;5.37;2.90;;;;;;;;;;5020778;28;20176;-86
2022/05/21 05:43:59;;;;;;;6.27;2.77;;;;;;;;;;5031191;28;20215;-86
2022/05/21 05:47:03;;;;;;;3.87;2.90;;;;;;;;;;5031351;28;20199;-86
2022/05/21 05:50:08;;;;;;;3.43;3.03;;;;;;;;;;5031275;28;20176;-86
2022/05/21 05:53:13;;;;;;;4.20;2.63;;;;;;;;;;5030211;28;20560;-86
2022/05/21 05:56:17;;;;;;;4.50;2.33;;;;;;;;;;5031226;28;20185;-86
2022/05/21 06:02:59;;;;;;;5.40;2.33;;;;;;;;;;5031211;28;20180;-86
2022/05/21 06:06:04;;;;;;;6.07;2.50;;;;;;;;;;5031324;28;20184;-86
2022/05/21 06:09:08;;;;;;;3.40;2.63;;;;;;;;;;5019385;28;20172;-86
2022/05/21 06:12:12;;;;;;;4.30;2.60;;;;;;;;;;5019651;28;20516;-86
2022/05/21 06:15:16;;;;;;;2.80;2.60;;;;;;;;;;5041947;28;20184;-86
2022/05/21 06:18:21;;;;;;;2.80;2.60;;;;;;;;;;5042273;28;20204;-86
2022/05/21 06:21:25;;;;;;;4.33;2.53;;;;;;;;;;5019252;28;20181;-86
2022/05/21 06:24:33;;;;;;;3.13;2.70;;;;;;;;;;5030485;28;20211;-86
2022/05/21 06:27:37;;;;;;;4.13;2.30;;;;;;;;;;5030536;28;20180;-86
2022/05/21 06:30:43;;;;;;;5.07;3.00;;;;;;;;;;5030331;28;20200;-86
2022/05/21 06:33:47;;;;;;;4.10;2.60;;;;;;;;;;5030052;28;20223;-86
2022/05/21 06:36:51;;;;;;;3.20;2.50;;;;;;;;;;5041775;28;20181;-86
2022/05/21 06:39:55;;;;;;;3.80;2.40;;;;;;;;;;5041736;28;20181;-86
2022/05/21 06:43:00;;;;;;;3.50;2.50;;;;;;;;;;5019109;28;20215;-86
2022/05/21 06:46:05;;;;;;;4.60;2.43;;;;;;;;;;5030321;28;20639;-86
2022/05/21 06:49:09;;;;;;;4.33;2.80;;;;;;;;;;5019304;28;20172;-86
2022/05/21 06:52:13;;;;;;;3.70;2.33;;;;;;;;;;5030573;28;20176;-86
2022/05/21 06:55:18;;;;;;;4.60;2.90;;;;;;;;;;5019034;28;20180;-86
2022/05/21 06:58:22;;;;;;;5.13;2.90;;;;;;;;;;5018736;28;20223;-86
2022/05/21 07:01:27;;;;;;;5.53;2.47;;;;;;;;;;5030319;28;20184;-86
2022/05/21 07:07:54;;;;;;;4.87;2.50;;;;;;;;;;5041619;28;20180;-86
2022/05/21 07:10:59;;;;;;;7.07;2.70;;;;;;;;;;5030094;28;20184;-85
2022/05/21 07:14:03;;;;;;;3.70;2.37;;;;;;;;;;5041138;28;20220;-85
2022/05/21 07:17:07;;;;;;;4.40;2.77;;;;;;;;;;5018741;28;20176;-85
2022/05/21 07:20:19;;;;;;;3.53;2.67;;;;;;;;;;5030028;28;20195;-85
2022/05/21 07:23:26;;;;;;;4.73;3.00;;;;;;;;;;5029845;28;20212;-85
2022/05/21 07:26:31;;;;;;;2.67;2.20;;;;;;;;;;5041309;28;20180;-85
2022/05/21 07:29:35;;;;;;;3.83;2.67;;;;;;;;;;5029772;28;20192;-86
2022/05/21 07:32:41;;;;;;;3.30;2.63;;;;;;;;;;5018450;28;20200;-85
2022/05/21 07:35:45;;;;;;;3.40;2.53;;;;;;;;;;5041314;28;20193;-85
2022/05/21 07:38:49;;;;;;;2.47;2.20;;;;;;;;;;5018412;28;20203;-85
2022/05/21 07:41:53;;;;;;;4.33;2.20;;;;;;;;;;5030240;28;20524;-86
2022/05/21 07:44:58;;;;;;;2.67;2.07;;;;;;;;;;5029460;28;20184;-85
2022/05/21 07:48:02;;;;;;;2.57;2.17;;;;;;;;;;5029432;28;20172;-86
2022/05/21 07:51:07;;;;;;;7.67;2.23;;;;;;;;;;5018354;28;20184;-86
2022/05/21 07:54:11;;;;;;;2.80;2.37;;;;;;;;;;5018317;28;20216;-86
2022/05/21 07:57:16;;;;;;;3.60;2.30;;;;;;;;;;5018571;28;20189;-86
2022/05/21 08:00:20;;;;;;;3.33;2.10;;;;;;;;;;5029246;28;20512;-86
2022/05/21 08:03:25;;;;;;;2.23;1.90;;;;;;;;;;5018190;28;20216;-86
2022/05/21 08:06:29;;;;;;;3.13;2.20;;;;;;;;;;5029362;28;20516;-86
2022/05/21 08:09:33;;;;;;;3.37;2.40;;;;;;;;;;5029930;28;20508;-86
2022/05/21 08:12:37;;;;;;;2.53;1.93;;;;;;;;;;5018206;28;20188;-86
2022/05/21 08:15:43;;;;;;;3.67;2.37;;;;;;;;;;5031162;28;20611;-86
2022/05/21 08:18:47;;;;;;;2.67;2.00;;;;;;;;;;5021692;28;20212;-86
2022/05/21 08:21:52;;;;;;;2.47;2.17;;;;;;;;;;5021645;28;20178;-86
2022/05/21 08:28:19;;;;;;;1.70;1.60;;;;;;;;;;5044069;28;20181;-86
2022/05/21 08:31:23;;;;;;;2.40;1.50;;;;;;;;;;5044017;28;20182;-86
2022/05/21 08:34:28;;;;;;;2.77;2.10;;;;;;;;;;5020968;28;20229;-86
2022/05/21 08:37:33;;;;;;;2.90;1.60;;;;;;;;;;5032468;28;20181;-86
2022/05/21 08:40:54;;;;;;;1.87;1.53;;;;;;;;;;5032597;28;20517;-86
2022/05/21 08:44:12;;;;;;;2.77;2.00;;;;;;;;;;5021077;28;20220;-86
2022/05/21 08:47:30;;;;;;;3.53;1.70;;;;;;;;;;5021169;28;20645;-86
2022/05/21 08:50:44;;;;;;;2.80;1.40;;;;;;;;;;5032278;28;20178;-86
2022/05/21 08:53:51;;;;;;;2.90;1.60;;;;;;;;;;5020747;28;20217;-86
2022/05/21 08:56:56;;;;;;;2.00;1.43;;;;;;;;;;5021426;28;20181;-87
2022/05/21 09:00:07;;;;;;;2.23;1.37;;;;;;;;;;5020812;28;20221;-86
2022/05/21 09:03:14;;;;;;;3.17;1.30;;;;;;;;;;5032254;28;20213;-87
2022/05/21 09:06:18;;;;;;;5.43;1.53;;;;;;;;;;5032186;28;20177;-87
2022/05/21 09:10:05;;;;;;;6.97;2.95;;;;;;;;;;5020527;28;20192;-86
2022/05/21 09:13:33;;;;;;;4.38;1.60;;;;;;;;;;5004774;28;20224;-86
2022/05/21 09:16:54;;;;;;;1.83;0.93;;;;;;;;;;5043774;28;20179;-86
2022/05/21 09:20:05;;;;;;;1.23;1.13;;;;;;;;;;5031971;28;20208;-87
2022/05/21 09:23:11;;;;;;;2.67;1.15;;;;;;;;;;5020755;28;20225;-87
2022/05/21 09:26:18;;;;;;;2.30;1.38;;;;;;;;;;5032460;28;20176;-87
2022/05/21 09:29:28;;;;;;;2.05;1.60;;;;;;;;;;5020662;28;20180;-86
2022/05/21 09:32:33;;;;;;;1.83;1.20;;;;;;;;;;5031530;28;20184;-86
2022/05/21 09:35:52;;;;;;;1.63;1.52;;;;;;;;;;5031514;28;20181;-87
2022/05/21 09:38:56;;;;;;;2.35;1.23;;;;;;;;;;5042436;28;20219;-86
2022/05/21 09:42:08;;;;;;;1.52;1.10;;;;;;;;;;5020228;28;20179;-87
2022/05/21 09:45:29;;;;;;;2.13;0.98;;;;;;;;;;5020021;28;20186;-87
2022/05/21 09:48:34;;;;;;;4.10;0.98;;;;;;;;;;5042893;28;20184;-87
2022/05/21 09:51:40;;;;;;;3.35;0.93;;;;;;;;;;5019726;28;20196;-86
2022/05/21 09:54:44;;;;;;;1.17;1.08;;;;;;;;;;5020008;28;20214;-87
2022/05/21 09:57:49;;;;;;;0.85;0.75;;;;;;;;;;5031111;28;20187;-87
2022/05/21 10:00:57;;;;;;;2.55;0.75;;;;;;;;;;5031067;28;20187;-87
2022/05/21 10:04:11;;;;;;;2.88;0.80;;;;;;;;;;5030987;28;20219;-87
2022/05/21 10:11:02;;;;;;;2.63;1.00;;;;;;;;;;5030918;28;20203;-87
2022/05/21 10:14:17;;;;;;;1.50;0.93;;;;;;;;;;5019305;28;20687;-87
2022/05/21 10:17:28;;;;;;;5.57;1.00;;;;;;;;;;5042102;28;20178;-87
2022/05/21 10:20:42;;;;;;;2.45;0.90;;;;;;;;;;5041661;28;20190;-86
2022/05/21 10:23:56;;;;;;;5.07;1.02;;;;;;;;;;5019138;28;20316;-86
2022/05/21 10:27:06;;;;;;;1.60;0.70;;;;;;;;;;5018910;28;20192;-85
2022/05/21 10:30:22;;;;;;;1.85;1.00;;;;;;;;;;5018384;28;20529;-85
2022/05/21 10:33:47;;;;;;;1.23;0.80;;;;;;;;;;5034953;23;20230;-84
2022/05/21 10:37:25;;;;;;;2.65;0.70;;;;;;;;;;5021633;28;20208;-85
2022/05/21 10:40:50;;;;;;;1.33;0.70;;;;;;;;;;5010167;28;20215;-85
2022/05/21 10:44:14;;;;;;;2.10;1.05;;;;;;;;;;5022530;28;20224;-86
2022/05/21 10:47:54;;;;;;;1.15;0.70;;;;;;;;;;4990859;28;20184;-86
2022/05/21 10:51:02;;;;;;;0.73;0.65;;;;;;;;;;4991012;28;20190;-85
2022/05/21 10:54:30;;;;;;;6.32;0.90;;;;;;;;;;5018458;28;20219;-85
2022/05/21 10:57:49;;;;;;;3.47;0.80;;;;;;;;;;5007725;28;20541;-85
2022/05/21 11:01:12;;;;;;;3.15;0.60;;;;;;;;;;4989237;28;20522;-85
2022/05/21 11:04:34;;;;;;;2.40;0.63;;;;;;;;;;5021300;28;20580;-85
2022/05/21 11:08:01;;;;;;;1.42;0.82;;;;;;;;;;5008814;28;20181;-85
2022/05/21 11:11:23;;;;;;;1.10;0.60;;;;;;;;;;5003094;28;20184;-87
2022/05/21 11:14:45;;;;;;;1.85;0.73;;;;;;;;;;4979859;28;20225;-85
2022/05/21 11:17:59;;;;;;;4.53;0.80;;;;;;;;;;5001775;28;20182;-86
2022/05/21 11:21:22;;;;;;;4.13;0.70;;;;;;;;;;4999817;28;20184;-86
2022/05/21 11:24:42;;;;;;;3.40;0.70;;;;;;;;;;5006036;28;20236;-85
2022/05/21 11:28:07;;;;;;;1.90;0.88;;;;;;;;;;5021539;28;20624;-86
2022/05/21 11:37:19;;;;;;;1.88;0.68;;;;;;;;;;4999228;28;20195;-85
2022/05/21 11:38:20;;;;;;;1.98;1.00;;;;;;;;;;5015324;28;20195;-85
2022/05/21 11:42:08;;;;;;;1.08;0.80;;;;;;;;;;5013497;28;20185;-85
2022/05/21 11:45:22;;;;;;;0.60;0.60;;;;;;;;;;5024745;28;20247;-85
2022/05/21 11:48:29;;;;;;;1.25;0.80;;;;;;;;;;4992000;28;20194;-85
2022/05/21 11:51:34;;;;;;;2.13;0.70;;;;;;;;;;5018483;28;20201;-86
2022/05/21 11:54:47;;;;;;;2.35;0.77;;;;;;;;;;5002070;28;20232;-86
2022/05/21 11:57:54;;;;;;;1.13;0.73;;;;;;;;;;5014528;28;20187;-86
2022/05/21 12:00:58;;;;;;;1.15;0.77;;;;;;;;;;5006783;28;20652;-85
2022/05/21 12:04:03;;;;;;;2.40;0.63;;;;;;;;;;5025383;28;20214;-86
2022/05/21 12:07:14;;;;;;;1.17;0.45;;;;;;;;;;5005202;28;20188;-86
2022/05/21 12:10:24;;;;;;;0.98;0.80;;;;;;;;;;4996827;28;20215;-86
2022/05/21 12:13:34;;;;;;;1.65;0.60;;;;;;;;;;5003027;28;20185;-85
2022/05/21 12:16:38;;;;;;;1.70;0.75;;;;;;;;;;5010823;28;20191;-86
2022/05/21 12:19:52;;;;;;;0.70;0.50;;;;;;;;;;4993650;28;20209;-86
2022/05/21 12:22:56;;;;;;;2.65;0.95;;;;;;;;;;4993747;28;20185;-86
2022/05/21 12:26:04;;;;;;;2.50;0.60;;;;;;;;;;4994024;28;20181;-85
2022/05/21 12:29:20;;;;;;;3.88;0.85;;;;;;;;;;5016893;28;20173;-85
2022/05/21 12:32:25;;;;;;;3.20;0.90;;;;;;;;;;4993320;28;20190;-87
2022/05/21 12:35:59;;;;;;;1.02;0.60;;;;;;;;;;4982524;28;20221;-86
2022/05/21 12:39:05;;;;;;;1.05;0.63;;;;;;;;;;5001790;28;20210;-86
2022/05/21 12:42:25;;;;;;;3.42;0.80;;;;;;;;;;5002186;28;20212;-86
2022/05/21 12:45:45;;;;;;;2.63;0.70;;;;;;;;;;5012766;28;20219;-84
2022/05/21 12:48:50;;;;;;;0.90;0.50;;;;;;;;;;4983510;28;20189;-85
2022/05/21 12:51:55;;;;;;;6.45;0.60;;;;;;;;;;4996002;28;20182;-85
2022/05/21 12:55:32;;;;;;;1.63;0.77;;;;;;;;;;4993695;28;20557;-85
2022/05/21 12:58:36;;;;;;;1.40;0.60;;;;;;;;;;4993473;28;20199;-85
2022/05/21 13:01:55;;;;;;;1.35;0.57;;;;;;;;;;5001542;28;20173;-85
2022/05/21 13:04:59;;;;;;;2.85;0.95;;;;;;;;;;5015045;28;20228;-85
2022/05/21 13:08:05;;;;;;;1.48;0.68;;;;;;;;;;5004953;28;20525;-87
2022/05/21 13:11:21;;;;;;;1.48;0.63;;;;;;;;;;4994089;28;20189;-85
2022/05/21 13:14:33;;;;;;;17.17;1.48;;;;;;;;;;5024307;28;20221;-85
2022/05/21 13:17:48;;;;;;;1.00;0.80;;;;;;;;;;5012825;28;20187;-85
2022/05/21 13:21:24;;;;;;;1.85;0.57;;;;;;;;;;5035242;28;20654;-85
2022/05/21 13:24:28;;;;;;;3.08;0.57;;;;;;;;;;5004018;28;20223;-85
2022/05/21 13:27:50;;;;;;;3.70;0.60;;;;;;;;;;5029560;28;20539;-85
2022/05/21 13:30:55;;;;;;;1.58;0.60;;;;;;;;;;5024027;28;20180;-84
2022/05/21 13:33:59;;;;;;;0.85;0.57;;;;;;;;;;4993390;28;20230;-85
2022/05/21 13:37:04;;;;;;;3.17;0.60;;;;;;;;;;5005836;28;20200;-88
2022/05/21 13:40:19;;;;;;;0.77;0.60;;;;;;;;;;5022597;28;20212;-85
2022/05/21 13:43:30;;;;;;;2.47;0.60;;;;;;;;;;4998088;28;20207;-85
2022/05/21 13:46:37;;;;;;;0.60;0.60;;;;;;;;;;5019357;28;20191;-87
2022/05/21 13:49:42;;;;;;;1.45;0.55;;;;;;;;;;5000582;28;20187;-87
2022/05/21 13:52:49;;;;;;;0.85;0.45;;;;;;;;;;5011665;28;20191;-89
2022/05/21 13:56:06;;;;;;;0.88;0.40;;;;;;;;;;5000183;28;20193;-86
2022/05/21 13:59:21;;;;;;;18.27;1.80;;;;;;;;;;4999584;28;20194;-88
2022/05/21 14:02:35;;;;;;;1.45;0.50;;;;;;;;;;5001389;28;20191;-86
2022/05/21 14:05:49;;;;;;;1.30;0.68;;;;;;;;;;5012145;28;20220;-86
2022/05/21 14:09:00;;;;;;;1.52;0.45;;;;;;;;;;4991706;28;20198;-86
2022/05/21 14:12:12;;;;;;;0.68;0.40;;;;;;;;;;5017684;28;20197;-88
2022/05/21 14:15:26;;;;;;;2.58;0.50;;;;;;;;;;5017864;28;20213;-88
2022/05/21 14:18:42;;;;;;;3.55;0.68;;;;;;;;;;4980940;28;20221;-88
2022/05/21 14:22:04;;;;;;;3.25;0.55;;;;;;;;;;5002741;28;20193;-88
2022/05/21 14:25:27;;;;;;;2.63;0.57;;;;;;;;;;4991839;28;20688;-88
2022/05/21 14:28:31;;;;;;;0.50;0.50;;;;;;;;;;5011405;28;20188;-88
2022/05/21 14:31:38;;;;;;;0.95;0.60;;;;;;;;;;5005573;28;20178;-88
2022/05/21 14:34:44;;;;;;;3.85;0.70;;;;;;;;;;5017995;28;20563;-88
2022/05/21 14:38:00;;;;;;;1.75;0.50;;;;;;;;;;5022350;28;20524;-87
2022/05/21 14:41:04;;;;;;;1.02;0.60;;;;;;;;;;5022109;28;20205;-88
2022/05/21 14:44:22;;;;;;;1.63;0.50;;;;;;;;;;4993672;28;20574;-88
2022/05/21 14:54:13;;;;;;;2.38;0.65;;;;;;;;;;5019418;28;20219;-86
2022/05/21 14:57:17;;;;;;;1.02;0.50;;;;;;;;;;4997543;28;20194;-86
2022/05/21 15:00:21;;;;;;;1.52;0.55;;;;;;;;;;5010495;28;20210;-86
2022/05/21 15:03:25;;;;;;;1.27;0.60;;;;;;;;;;5002902;28;20193;-86
2022/05/21 15:06:35;;;;;;;3.40;0.52;;;;;;;;;;4998632;28;20192;-86
2022/05/21 15:09:40;;;;;;;1.92;0.65;;;;;;;;;;4993793;28;20197;-85
2022/05/21 15:12:44;;;;;;;2.45;0.50;;;;;;;;;;5019733;28;20206;-85
2022/05/21 15:15:48;;;;;;;1.42;0.60;;;;;;;;;;4991043;28;20203;-86
2022/05/21 15:18:53;;;;;;;2.33;0.65;;;;;;;;;;4991159;28;20178;-87
2022/05/21 15:21:58;;;;;;;1.20;0.65;;;;;;;;;;4990981;28;20192;-88
2022/05/21 15:25:06;;;;;;;0.85;0.50;;;;;;;;;;5005436;28;20687;-88
2022/05/21 15:28:11;;;;;;;0.57;0.47;;;;;;;;;;4997665;28;20204;-88
2022/05/21 15:31:15;;;;;;;1.88;0.80;;;;;;;;;;4984383;28;20191;-88
2022/05/21 15:34:21;;;;;;;0.68;0.50;;;;;;;;;;4996507;28;20222;-88
2022/05/21 15:37:25;;;;;;;3.20;0.60;;;;;;;;;;4997715;28;20180;-87
2022/05/21 15:40:34;;;;;;;1.52;0.50;;;;;;;;;;4997661;28;20553;-87
2022/05/21 15:43:40;;;;;;;0.75;0.50;;;;;;;;;;5008290;28;20219;-88
2022/05/21 15:46:47;;;;;;;3.80;0.50;;;;;;;;;;5008401;28;20184;-88
2022/05/21 15:49:53;;;;;;;2.17;0.70;;;;;;;;;;5008305;28;20177;-88
2022/05/21 15:52:59;;;;;;;1.50;0.60;;;;;;;;;;5001341;28;20189;-87
2022/05/21 15:56:04;;;;;;;2.10;0.60;;;;;;;;;;5014537;28;20193;-88
2022/05/21 15:59:12;;;;;;;5.10;0.80;;;;;;;;;;5014888;28;20192;-88
2022/05/21 16:02:22;;;;;;;2.07;0.60;;;;;;;;;;5003820;28;20518;-88
2022/05/21 16:05:29;;;;;;;0.50;0.50;;;;;;;;;;5002987;28;20219;-88
2022/05/21 16:08:33;;;;;;;1.13;0.50;;;;;;;;;;5014018;28;20201;-88
2022/05/21 16:11:37;;;;;;;1.33;0.60;;;;;;;;;;5003935;28;20183;-89
2022/05/21 16:14:41;;;;;;;1.80;0.50;;;;;;;;;;5014006;28;20222;-89
2022/05/21 16:17:46;;;;;;;2.57;0.60;;;;;;;;;;5013900;28;20182;-89
2022/05/21 16:20:51;;;;;;;3.73;0.63;;;;;;;;;;5014007;28;20209;-89
2022/05/21 16:23:58;;;;;;;2.43;0.67;;;;;;;;;;5012143;28;20692;-90
2022/05/21 16:27:10;;;;;;;2.20;0.70;;;;;;;;;;5001558;28;20197;-89
2022/05/21 16:30:14;;;;;;;3.20;0.80;;;;;;;;;;4993183;28;20194;-89
2022/05/21 16:33:20;;;;;;;1.70;0.70;;;;;;;;;;4994345;28;20198;-88
2022/05/21 16:36:50;;;;;;;1.23;0.60;;;;;;;;;;5044593;23;20229;-87
2022/05/21 17:25:06;;;;;;;2.43;1.00;;;;;;;;;;5020373;28;20216;-87
2022/05/21 17:31:34;;;;;;;2.20;0.83;;;;;;;;;;5001171;28;20197;-87
2022/05/21 17:34:38;;;;;;;4.10;0.93;;;;;;;;;;5001404;28;20659;-87
2022/05/21 17:37:42;;;;;;;4.47;1.00;;;;;;;;;;5011584;28;20193;-87
2022/05/21 17:40:46;;;;;;;3.00;1.10;;;;;;;;;;4961210;28;20225;-85
2022/05/21 17:43:52;;;;;;;3.80;1.47;;;;;;;;;;4963020;28;20197;-84
2022/05/21 17:46:56;;;;;;;2.80;1.10;;;;;;;;;;4993491;28;20189;-85
2022/05/21 17:50:01;;;;;;;1.60;0.90;;;;;;;;;;4992152;28;20177;-85
2022/05/21 17:53:05;;;;;;;1.30;1.00;;;;;;;;;;4992336;28;20197;-85
2022/05/21 17:56:11;;;;;;;2.30;1.40;;;;;;;;;;4982080;28;20561;-85
2022/05/21 17:59:15;;;;;;;3.57;1.20;;;;;;;;;;4992214;28;20185;-85
2022/05/21 18:02:20;;;;;;;2.67;1.10;;;;;;;;;;5015823;28;20221;-85
2022/05/21 18:05:34;;;;;;;3.53;1.20;;;;;;;;;;5014899;28;20220;-83
2022/05/21 18:08:41;;;;;;;3.57;1.20;;;;;;;;;;5004350;28;20201;-83
2022/05/21 18:11:45;;;;;;;1.53;1.10;;;;;;;;;;4999608;28;20189;-83
2022/05/21 18:14:49;;;;;;;3.33;1.17;;;;;;;;;;4999522;28;20208;-83
2022/05/21 18:21:18;;;;;;;2.33;1.30;;;;;;;;;;5033193;28;20208;-86
2022/05/21 18:24:25;;;;;;;1.47;0.83;;;;;;;;;;5000274;28;20525;-83
2022/05/21 18:27:30;;;;;;;2.47;1.20;;;;;;;;;;5021618;28;20189;-84
2022/05/21 18:30:34;;;;;;;1.43;1.00;;;;;;;;;;5020350;28;20192;-83
2022/05/21 18:33:39;;;;;;;2.00;1.20;;;;;;;;;;4999440;28;20588;-83
2022/05/21 18:36:43;;;;;;;2.80;1.37;;;;;;;;;;5010211;28;20220;-84
2022/05/21 18:39:47;;;;;;;1.57;1.00;;;;;;;;;;5016033;28;20189;-83
2022/05/21 18:42:53;;;;;;;2.60;1.30;;;;;;;;;;4998810;28;20536;-84
2022/05/21 18:45:59;;;;;;;2.17;1.13;;;;;;;;;;5000192;28;20230;-83
2022/05/21 18:49:03;;;;;;;2.73;1.20;;;;;;;;;;4979877;28;20200;-84
2022/05/21 18:52:07;;;;;;;2.67;1.20;;;;;;;;;;4973589;28;20185;-84
2022/05/21 18:55:11;;;;;;;2.23;1.30;;;;;;;;;;4998280;28;20212;-84
2022/05/21 18:58:16;;;;;;;3.73;1.30;;;;;;;;;;4997124;28;20196;-84
2022/05/21 19:01:25;;;;;;;6.27;1.50;;;;;;;;;;4975896;28;20222;-84
2022/05/21 19:04:30;;;;;;;8.20;2.13;;;;;;;;;;4971154;28;20182;-83
2022/05/21 19:07:39;;;;;;;1.53;1.30;;;;;;;;;;4960258;28;20194;-87
2022/05/21 19:10:45;;;;;;;2.63;1.33;;;;;;;;;;4968092;28;20185;-87
2022/05/21 19:13:49;;;;;;;2.20;1.43;;;;;;;;;;4991530;28;20193;-86
2022/05/21 19:16:53;;;;;;;3.23;1.10;;;;;;;;;;5000716;28;20184;-86
2022/05/21 19:19:57;;;;;;;2.30;1.37;;;;;;;;;;4993467;28;20193;-86
2022/05/21 19:23:01;;;;;;;4.23;1.47;;;;;;;;;;4962128;28;20210;-86
2022/05/21 19:26:05;;;;;;;2.53;1.50;;;;;;;;;;4980021;28;20217;-87
2022/05/21 19:29:09;;;;;;;2.30;1.70;;;;;;;;;;4971321;28;20193;-87
2022/05/21 19:32:14;;;;;;;4.23;1.60;;;;;;;;;;4999762;28;20624;-87
2022/05/21 19:35:19;;;;;;;2.17;1.47;;;;;;;;;;4979912;28;20236;-86
2022/05/21 19:38:23;;;;;;;3.53;1.27;;;;;;;;;;4998697;28;20193;-87
2022/05/21 19:41:28;;;;;;;2.00;1.37;;;;;;;;;;4989221;28;20210;-86
2022/05/21 19:44:32;;;;;;;4.20;1.80;;;;;;;;;;5007838;28;20640;-86
2022/05/21 19:47:36;;;;;;;7.03;1.60;;;;;;;;;;4981370;28;20189;-87
2022/05/21 19:50:40;;;;;;;2.83;1.60;;;;;;;;;;4998306;28;20185;-86
2022/05/21 19:53:45;;;;;;;3.50;1.60;;;;;;;;;;4990874;28;20561;-87
2022/05/21 19:56:59;;;;;;;1.67;1.40;;;;;;;;;;4990708;28;20185;-87
2022/05/21 20:00:04;;;;;;;2.33;1.30;;;;;;;;;;4979926;28;20209;-86
2022/05/21 20:03:17;;;;;;;2.60;1.40;;;;;;;;;;4991846;28;20201;-86
2022/05/21 20:06:23;;;;;;;1.80;1.50;;;;;;;;;;4988939;28;20218;-87
2022/05/21 20:09:31;;;;;;;3.20;1.90;;;;;;;;;;4994017;28;20198;-84
2022/05/21 20:12:35;;;;;;;2.53;1.67;;;;;;;;;;4986691;28;20205;-84